Time;durP1;ratioP1;P1;durP2;ratioP2;P2;SDS_P1;SDS_P2;PMS_P1;PMS_P2;Temp;Humidity;BMP_temperature;BMP_pressure;BME280_temperature;BME280_humidity;BME280_pressure;Samples;Min_cycle;Max_cycle;Signal;HPM_P1;HPM_P2
2022/01/24 00:01:07;;;;;;;2.95;2.13;;;15.90;51.10;14.90;103109.00;;;;5064096;28;20059;-71
2022/01/24 00:03:57;;;;;;;2.63;2.22;;;15.90;51.10;14.90;103108.00;;;;5056165;28;20044;-71
2022/01/24 00:06:43;;;;;;;2.60;2.00;;;15.90;51.10;14.90;103106.00;;;;5067085;28;20049;-71
2022/01/24 00:09:29;;;;;;;3.15;2.00;;;15.90;51.10;14.90;103104.00;;;;5058526;28;20612;-71
2022/01/24 00:12:26;;;;;;;3.08;2.38;;;15.90;51.10;14.90;103103.00;;;;5062732;28;20543;-71
2022/01/24 00:15:21;;;;;;;3.15;2.28;;;15.90;51.10;14.90;103102.00;;;;5062715;28;20135;-71
2022/01/24 00:18:26;;;;;;;3.47;2.63;;;15.90;51.10;15.00;103103.00;;;;5060234;28;20135;-71
2022/01/24 00:27:21;;;;;;;3.35;2.13;;;15.90;51.10;14.90;103111.00;;;;5064188;28;20048;-71
2022/01/24 00:30:07;;;;;;;3.08;2.30;;;15.90;51.10;14.90;103111.00;;;;5063735;28;20395;-71
2022/01/24 00:32:53;;;;;;;3.40;2.70;;;15.90;51.10;14.90;103113.00;;;;5049346;28;20402;-71
2022/01/24 00:35:39;;;;;;;2.95;2.35;;;15.90;51.10;14.90;103109.00;;;;5040390;28;20118;-71
2022/01/24 00:38:26;;;;;;;2.83;2.20;;;15.90;51.00;14.90;103114.00;;;;5066893;28;20040;-71
2022/01/24 00:41:15;;;;;;;6.65;2.95;;;15.90;51.00;14.90;103112.00;;;;5068393;28;20041;-72
2022/01/24 00:44:36;;;;;;;3.65;2.25;;;15.90;51.00;14.90;103108.00;;;;5064481;28;20047;-71
2022/01/24 00:47:27;;;;;;;3.28;2.20;;;15.90;51.00;14.90;103108.00;;;;5047235;28;20131;-71
2022/01/24 00:53:59;;;;;;;3.40;2.53;;;15.90;51.00;14.90;103106.00;;;;5064757;28;20083;-71
2022/01/24 00:56:25;;;;;;;3.22;2.30;;;15.90;51.00;14.90;103105.00;;;;5056765;28;20036;-71
2022/01/24 00:59:11;;;;;;;3.58;2.67;;;15.90;51.00;14.90;103100.00;;;;5066532;28;20048;-71
2022/01/24 01:01:57;;;;;;;4.00;2.38;;;15.90;51.00;14.90;103096.00;;;;5066591;28;20460;-71
2022/01/24 01:05:02;;;;;;;2.42;2.20;;;15.90;51.00;14.90;103100.00;;;;5067141;28;20045;-71
2022/01/24 01:18:04;;;;;;;3.33;2.47;;;15.90;51.00;14.90;103099.00;;;;5058715;28;20070;-71
2022/01/24 01:20:25;;;;;;;3.25;2.70;;;15.90;51.00;14.90;103089.00;;;;5062828;28;20124;-71
2022/01/24 01:23:11;;;;;;;4.03;2.60;;;15.90;51.00;14.90;103085.00;;;;5068777;28;20406;-71
2022/01/24 01:26:00;;;;;;;3.97;3.03;;;15.90;51.00;14.90;103087.00;;;;5065342;28;20043;-71
2022/01/24 01:28:49;;;;;;;4.53;2.63;;;15.80;50.90;14.90;103092.00;;;;5063899;28;20128;-71
2022/01/24 01:58:22;;;;;;;4.00;2.67;;;15.90;51.70;14.90;103079.00;;;;5054058;28;20044;-71
2022/01/24 02:01:08;;;;;;;3.70;2.78;;;15.80;51.00;14.90;103066.00;;;;5052807;28;20489;-71
2022/01/24 02:03:56;;;;;;;3.72;2.70;;;15.90;51.10;14.90;103071.00;;;;5063551;28;20059;-71
2022/01/24 02:06:43;;;;;;;4.00;3.00;;;15.80;51.00;14.90;103070.00;;;;5065272;28;20045;-71
2022/01/24 02:09:31;;;;;;;5.63;3.55;;;15.90;51.10;14.90;103070.00;;;;5060993;28;20040;-71
2022/01/24 02:12:19;;;;;;;3.83;2.60;;;15.90;51.10;14.90;103074.00;;;;5048256;28;20040;-71
2022/01/24 02:15:05;;;;;;;;;;;15.90;51.00;14.90;103064.00;;;;5065520;28;20036;-71
2022/01/24 02:18:07;;;;;;;3.83;2.67;;;15.90;51.10;14.90;103065.00;;;;5065751;28;19916;-71
2022/01/24 02:21:26;;;;;;;3.97;2.85;;;15.90;51.00;14.90;103066.00;;;;5068953;28;20045;-71
2022/01/24 02:24:13;;;;;;;3.80;2.73;;;15.80;50.90;14.80;103066.00;;;;5054160;28;20093;-71
2022/01/24 02:27:00;;;;;;;5.25;3.20;;;15.90;51.00;14.80;103065.00;;;;5049348;28;20070;-71
2022/01/24 02:29:52;;;;;;;4.10;2.75;;;15.90;51.00;14.90;103068.00;;;;5065652;28;20379;-71
2022/01/24 02:32:39;;;;;;;4.45;2.90;;;15.80;50.90;14.80;103066.00;;;;5062218;28;20028;-71
2022/01/24 02:35:25;;;;;;;4.77;3.07;;;15.90;51.00;14.90;103062.00;;;;5065276;28;20036;-71
2022/01/24 02:39:05;;;;;;;3.58;2.67;;;15.80;50.90;14.90;103059.00;;;;5060375;28;20315;-71
2022/01/24 02:53:40;;;;;;;5.15;3.15;;;15.80;50.90;14.80;103056.00;;;;5054075;28;20127;-71
2022/01/24 02:56:26;;;;;;;3.80;3.05;;;15.80;51.00;14.80;103063.00;;;;5061561;28;20044;-71
2022/01/24 02:59:13;;;;;;;4.15;2.75;;;15.80;50.90;14.80;103052.00;;;;5049430;28;20379;-71
2022/01/24 03:01:59;;;;;;;4.97;3.03;;;15.90;51.00;14.90;103052.00;;;;5050232;28;20052;-71
2022/01/24 03:04:45;;;;;;;3.90;2.92;;;15.80;51.00;14.80;103046.00;;;;5051490;28;20036;-71
2022/01/24 03:07:32;;;;;;;3.88;2.55;;;15.80;50.90;14.90;103051.00;;;;5050682;28;20051;-71
2022/01/24 03:10:27;;;;;;;4.40;3.00;;;15.80;50.90;14.90;103055.00;;;;5044626;28;20033;-71
2022/01/24 03:16:05;;;;;;;4.20;2.60;;;15.80;51.60;14.80;103045.00;;;;5064923;28;20047;-71
2022/01/24 03:18:51;;;;;;;3.60;3.13;;;15.80;50.90;14.90;103042.00;;;;5036452;28;20374;-71
2022/01/24 03:21:37;;;;;;;3.78;2.95;;;15.80;51.60;14.90;103039.00;;;;5066142;28;20032;-71
2022/01/24 03:24:23;;;;;;;4.30;2.88;;;15.90;51.00;14.90;103037.00;;;;5059725;28;20183;-71
2022/01/24 03:27:09;;;;;;;4.78;3.33;;;15.80;50.90;14.90;103037.00;;;;5048020;28;20064;-71
2022/01/24 03:29:55;;;;;;;4.43;3.10;;;15.80;50.90;14.90;103029.00;;;;5062260;28;20041;-71
2022/01/24 03:32:41;;;;;;;3.78;2.88;;;15.90;50.90;14.90;103025.00;;;;5064024;28;20029;-71
2022/01/24 03:35:27;;;;;;;4.47;3.20;;;15.90;50.90;14.90;103021.00;;;;5064523;28;20040;-71
2022/01/24 03:38:14;;;;;;;3.88;3.13;;;15.90;50.90;14.90;103023.00;;;;5056646;28;20642;-71
2022/01/24 03:41:00;;;;;;;4.75;3.33;;;15.90;50.90;14.90;103026.00;;;;5050735;28;20152;-71
2022/01/24 03:43:46;;;;;;;5.32;3.40;;;15.80;50.90;14.90;103030.00;;;;5064625;28;20089;-71
2022/01/24 03:46:47;;;;;;;3.35;2.70;;;15.90;50.90;14.90;103025.00;;;;5050943;28;20037;-71
2022/01/24 03:49:45;;;;;;;4.30;2.83;;;15.80;50.90;14.90;103030.00;;;;5053444;28;20070;-71
2022/01/24 03:52:31;;;;;;;3.67;3.03;;;15.90;51.00;14.90;103025.00;;;;5058242;28;20505;-71
2022/01/24 03:55:17;;;;;;;3.83;2.97;;;15.90;51.00;14.90;103030.00;;;;5061889;28;20032;-71
2022/01/24 03:58:03;;;;;;;5.07;3.08;;;15.90;51.00;14.90;103025.00;;;;5057637;28;20397;-71
2022/01/24 04:00:49;;;;;;;5.10;3.08;;;15.80;51.00;14.80;103026.00;;;;5063121;28;20037;-71
2022/01/24 04:03:37;;;;;;;3.45;2.70;;;15.90;51.10;14.90;103028.00;;;;5060237;28;20040;-71
2022/01/24 04:06:23;;;;;;;4.60;2.90;;;15.80;51.00;14.90;103022.00;;;;5045168;28;20418;-71
2022/01/24 04:09:09;;;;;;;4.18;2.97;;;15.80;51.00;14.90;103018.00;;;;5057620;28;20033;-71
2022/01/24 04:11:57;;;;;;;4.18;2.83;;;15.90;51.10;14.90;103015.00;;;;5064414;28;20436;-71
2022/01/24 04:17:43;;;;;;;4.25;3.00;;;15.90;51.00;14.90;103020.00;;;;5048924;28;20481;-71
2022/01/24 04:23:37;;;;;;;3.65;2.55;;;15.80;51.00;14.90;103024.00;;;;5059998;28;20139;-71
2022/01/24 04:26:23;;;;;;;4.30;2.63;;;15.80;51.00;14.90;103032.00;;;;5062978;28;20040;-71
2022/01/24 04:29:09;;;;;;;3.63;2.95;;;15.90;51.70;14.90;103030.00;;;;5056100;28;20509;-71
2022/01/24 04:31:55;;;;;;;7.53;3.13;;;15.90;51.00;14.90;103028.00;;;;5064664;28;20037;-71
2022/01/24 04:34:41;;;;;;;4.20;3.05;;;15.90;51.00;14.90;103034.00;;;;5048180;28;20386;-71
2022/01/24 04:37:27;;;;;;;4.35;2.63;;;15.90;51.00;14.90;103030.00;;;;5060870;28;20094;-71
2022/01/24 04:40:13;;;;;;;4.35;3.22;;;15.90;51.00;15.00;103027.00;;;;5049164;28;20071;-71
2022/01/24 04:43:20;;;;;;;4.18;3.05;;;15.90;51.00;14.90;103031.00;;;;5057437;28;20058;-71
2022/01/24 04:46:30;;;;;;;5.18;3.78;;;15.90;51.00;15.00;103027.00;;;;5059770;28;20765;-71
2022/01/24 04:52:40;;;;;;;3.78;2.70;;;15.90;50.90;14.90;103037.00;;;;5057898;28;20473;-71
2022/01/24 04:55:27;;;;;;;3.80;3.03;;;15.90;50.90;14.90;103023.00;;;;5058106;28;20050;-71
2022/01/24 04:58:13;;;;;;;3.83;2.45;;;15.90;50.90;15.00;103027.00;;;;5048329;28;20496;-71
2022/01/24 05:00:59;;;;;;;4.97;3.40;;;15.90;50.90;15.00;103028.00;;;;5064402;28;20040;-71
2022/01/24 05:03:45;;;;;;;3.95;2.85;;;15.90;50.90;15.00;103024.00;;;;5061059;28;20049;-71
2022/01/24 05:06:31;;;;;;;4.10;2.92;;;15.90;50.90;15.00;103021.00;;;;5065077;28;20041;-71
2022/01/24 05:09:18;;;;;;;4.38;3.20;;;15.90;50.90;15.00;103022.00;;;;5064848;28;20041;-71
2022/01/24 05:21:22;;;;;;;4.32;3.00;;;15.90;50.90;15.00;103017.00;;;;5058050;28;20046;-71
2022/01/24 05:24:16;;;;;;;3.85;2.67;;;15.90;50.90;15.00;103018.00;;;;5059816;28;20086;-71
2022/01/24 05:27:02;;;;;;;4.90;3.05;;;16.00;51.00;15.00;103024.00;;;;5067282;28;20040;-71
2022/01/24 05:29:48;;;;;;;3.13;2.53;;;15.90;51.00;15.00;103017.00;;;;5066417;28;20044;-71
2022/01/24 05:32:35;;;;;;;4.53;2.83;;;15.90;50.90;15.00;103021.00;;;;5063275;28;20102;-71
2022/01/24 05:35:21;;;;;;;3.95;2.88;;;15.90;51.00;15.00;103034.00;;;;5051501;28;20123;-71
2022/01/24 05:38:07;;;;;;;4.40;3.03;;;16.00;51.00;15.00;103022.00;;;;5065131;28;20036;-71
2022/01/24 05:40:53;;;;;;;4.28;3.05;;;15.90;50.90;15.00;103016.00;;;;5052177;28;20124;-71
2022/01/24 05:43:39;;;;;;;2.63;2.40;;;15.90;50.90;15.00;103024.00;;;;5056507;28;20052;-71
2022/01/24 05:46:25;;;;;;;4.18;2.97;;;15.90;50.90;15.00;103016.00;;;;5062808;28;20041;-71
2022/01/24 05:49:11;;;;;;;3.75;2.70;;;15.90;50.90;15.00;103032.00;;;;5056471;28;20053;-71
2022/01/24 05:51:57;;;;;;;5.20;3.13;;;16.00;51.00;15.00;103019.00;;;;5039612;28;20032;-71
2022/01/24 05:54:44;;;;;;;3.05;2.50;;;16.00;51.00;15.00;103009.00;;;;5054436;28;20048;-71
2022/01/24 05:57:30;;;;;;;3.13;2.35;;;15.90;50.90;15.00;103011.00;;;;5066669;28;20033;-71
2022/01/24 06:00:19;;;;;;;4.30;3.28;;;15.90;50.90;15.00;103017.00;;;;5061693;28;20044;-71
2022/01/24 06:03:05;;;;;;;3.60;2.53;;;16.00;51.00;15.00;103010.00;;;;5067009;28;20464;-71
2022/01/24 06:05:51;;;;;;;3.22;2.75;;;15.90;50.90;15.00;103019.00;;;;5066376;28;20040;-71
2022/01/24 06:08:37;;;;;;;4.88;3.10;;;15.90;50.90;15.00;103005.00;;;;5069704;28;20150;-71
2022/01/24 06:11:24;;;;;;;4.05;2.78;;;16.00;51.00;15.00;103010.00;;;;5062005;28;20070;-71
2022/01/24 06:14:10;;;;;;;3.97;2.77;;;15.90;51.00;15.00;103010.00;;;;5056611;28;20040;-71
2022/01/24 06:16:56;;;;;;;3.25;2.60;;;15.90;50.90;15.00;103007.00;;;;5069832;28;20300;-71
2022/01/24 06:19:43;;;;;;;3.80;2.58;;;15.90;51.00;15.00;103004.00;;;;5052550;28;20488;-71
2022/01/24 06:22:29;;;;;;;3.38;2.55;;;15.90;51.00;15.00;103020.00;;;;5050627;28;20052;-71
2022/01/24 06:25:21;;;;;;;3.22;2.22;;;15.90;50.90;15.00;103020.00;;;;5062206;28;20044;-71
2022/01/24 06:28:07;;;;;;;3.85;2.88;;;16.00;51.00;15.00;103029.00;;;;5051943;28;20036;-71
2022/01/24 06:30:53;;;;;;;3.95;2.38;;;15.90;50.90;15.00;103021.00;;;;5050602;28;20040;-71
2022/01/24 06:33:39;;;;;;;4.07;2.75;;;15.90;51.00;15.00;103018.00;;;;5054795;28;20052;-71
2022/01/24 06:36:25;;;;;;;3.65;2.88;;;15.90;50.90;15.00;103012.00;;;;5062838;28;20043;-71
2022/01/24 06:39:14;;;;;;;6.47;3.00;;;16.00;51.00;15.00;103025.00;;;;5049071;28;20401;-71
2022/01/24 06:42:14;;;;;;;4.63;3.20;;;15.90;51.00;15.00;103016.00;;;;5066988;28;20040;-71
2022/01/24 06:45:00;;;;;;;3.13;2.75;;;16.00;50.90;15.00;103021.00;;;;5066063;28;20037;-71
2022/01/24 06:47:46;;;;;;;4.10;2.88;;;16.00;51.00;15.00;103015.00;;;;5064094;28;20502;-71
2022/01/24 06:50:32;;;;;;;3.50;3.00;;;16.00;51.00;15.00;103026.00;;;;5061581;28;21867;-71
2022/01/24 06:53:18;;;;;;;3.33;2.80;;;15.90;51.00;15.00;103025.00;;;;5067078;28;20122;-71
2022/01/24 06:56:05;;;;;;;4.43;2.63;;;16.00;50.90;15.00;103034.00;;;;5063726;28;20037;-71
2022/01/24 06:58:51;;;;;;;4.80;3.30;;;15.90;50.90;15.00;103028.00;;;;5066088;28;20467;-71
2022/01/24 07:01:38;;;;;;;4.55;2.83;;;16.00;51.00;15.00;103033.00;;;;5063404;28;20029;-71
2022/01/24 07:04:24;;;;;;;4.40;3.20;;;16.00;51.00;15.00;103031.00;;;;5064071;28;20334;-71
2022/01/24 07:07:11;;;;;;;3.72;2.65;;;16.00;50.90;15.00;103041.00;;;;5065090;28;20041;-71
2022/01/24 07:09:57;;;;;;;4.38;3.03;;;16.00;51.60;15.00;103031.00;;;;5048372;28;20052;-71
2022/01/24 07:12:45;;;;;;;4.90;3.05;;;16.00;51.00;15.00;103044.00;;;;5060758;28;20496;-71
2022/01/24 07:15:35;;;;;;;3.70;2.60;;;15.90;50.90;15.00;103036.00;;;;5065629;28;20033;-71
2022/01/24 07:21:13;;;;;;;4.05;2.90;;;16.00;50.90;15.00;103044.00;;;;5063737;28;20067;-71
2022/01/24 07:23:59;;;;;;;3.20;2.50;;;15.90;50.90;15.00;103046.00;;;;5050994;28;20079;-71
2022/01/24 07:26:45;;;;;;;2.58;2.35;;;16.00;50.90;15.00;103046.00;;;;5069559;28;20044;-71
2022/01/24 07:29:31;;;;;;;4.28;3.00;;;15.90;50.90;15.00;103055.00;;;;5051188;28;20036;-71
2022/01/24 07:32:17;;;;;;;3.95;2.95;;;15.90;50.90;15.00;103056.00;;;;5064234;28;20047;-71
2022/01/24 07:35:04;;;;;;;3.53;2.78;;;16.00;51.00;15.00;103060.00;;;;5064266;28;20094;-71
2022/01/24 07:37:50;;;;;;;3.53;2.47;;;16.00;51.00;15.00;103054.00;;;;5050776;28;20037;-71
2022/01/24 07:40:40;;;;;;;3.65;2.70;;;15.90;50.90;15.00;103062.00;;;;5064011;28;20417;-71
2022/01/24 07:43:26;;;;;;;3.47;2.50;;;15.90;50.90;15.00;103058.00;;;;5051585;28;20049;-71
2022/01/24 07:46:12;;;;;;;4.03;2.70;;;16.00;50.90;15.00;103061.00;;;;5061610;28;20048;-71
2022/01/24 07:48:58;;;;;;;3.40;2.58;;;15.90;50.90;15.00;103063.00;;;;5062860;28;20481;-71
2022/01/24 07:51:44;;;;;;;3.53;2.80;;;15.90;50.90;15.00;103061.00;;;;5063478;28;20037;-71
2022/01/24 07:54:30;;;;;;;3.20;2.60;;;16.00;50.90;15.00;103057.00;;;;5037481;28;20037;-71
2022/01/24 07:57:16;;;;;;;3.78;2.63;;;16.00;50.90;15.00;103058.00;;;;5066023;28;20501;-72
2022/01/24 08:00:04;;;;;;;3.65;2.67;;;15.90;50.90;15.00;103055.00;;;;5060562;28;20051;-71
2022/01/24 08:02:51;;;;;;;3.13;2.20;;;16.00;50.90;15.00;103064.00;;;;5049074;28;20493;-71
2022/01/24 08:05:37;;;;;;;3.92;2.72;;;15.90;50.90;15.00;103057.00;;;;5063664;28;20044;-71
2022/01/24 08:08:23;;;;;;;4.32;2.70;;;15.90;50.90;15.00;103049.00;;;;5044552;28;20094;-71
2022/01/24 08:11:09;;;;;;;5.55;2.80;;;16.00;51.00;15.00;103055.00;;;;5061310;28;20567;-71
2022/01/24 08:13:55;;;;;;;4.20;2.50;;;16.00;51.00;15.00;103054.00;;;;5061159;28;20502;-71
2022/01/24 08:16:41;;;;;;;3.70;3.03;;;15.90;50.90;15.00;103056.00;;;;5057917;28;20037;-71
2022/01/24 08:19:28;;;;;;;3.10;2.35;;;15.90;50.90;15.00;103054.00;;;;5061259;28;20040;-71
2022/01/24 08:22:14;;;;;;;3.67;3.13;;;15.90;51.00;15.00;103056.00;;;;5062392;28;20394;-71
2022/01/24 08:25:04;;;;;;;4.28;3.10;;;16.00;51.00;15.00;103055.00;;;;5047934;28;20052;-71
2022/01/24 08:27:50;;;;;;;4.03;2.90;;;15.90;50.90;15.00;103055.00;;;;5062562;28;20123;-71
2022/01/24 08:30:36;;;;;;;3.28;2.55;;;15.90;50.90;15.00;103057.00;;;;5062084;28;20525;-71
2022/01/24 08:33:22;;;;;;;3.10;2.67;;;16.00;51.00;15.00;103064.00;;;;5063800;28;20033;-71
2022/01/24 08:36:08;;;;;;;6.10;3.22;;;15.90;51.00;15.00;103060.00;;;;5041086;28;20032;-71
2022/01/24 08:38:57;;;;;;;5.05;3.00;;;15.90;51.00;15.00;103066.00;;;;5048189;28;20032;-71
2022/01/24 08:42:03;;;;;;;3.08;2.45;;;16.00;51.00;15.00;103059.00;;;;5060815;28;20090;-71
2022/01/24 08:47:42;;;;;;;3.92;2.80;;;16.00;51.00;15.00;103066.00;;;;5048754;28;20032;-72
2022/01/24 08:50:28;;;;;;;2.83;2.17;;;15.90;51.00;15.00;103066.00;;;;5064805;28;20440;-71
2022/01/24 08:53:14;;;;;;;2.88;2.42;;;15.90;50.90;15.00;103062.00;;;;5060412;28;20107;-71
2022/01/24 08:56:05;;;;;;;3.38;2.72;;;15.90;50.90;15.00;103053.00;;;;5060063;28;20048;-71
2022/01/24 08:58:51;;;;;;;3.00;2.33;;;16.00;51.00;15.00;103060.00;;;;5055705;28;20045;-71
2022/01/24 09:01:37;;;;;;;3.70;2.30;;;16.00;50.90;15.00;103060.00;;;;5064887;28;20044;-71
2022/01/24 09:04:23;;;;;;;3.17;2.53;;;16.00;51.00;15.00;103061.00;;;;5064791;28;20037;-71
2022/01/24 09:07:10;;;;;;;4.03;2.80;;;16.00;51.00;15.00;103058.00;;;;5068872;28;20041;-71
2022/01/24 09:09:57;;;;;;;3.83;2.67;;;16.00;51.00;15.00;103049.00;;;;5064763;28;20545;-71
2022/01/24 09:12:43;;;;;;;3.47;2.60;;;16.00;51.00;15.00;103055.00;;;;5052449;28;20595;-71
2022/01/24 09:15:29;;;;;;;4.95;3.10;;;16.00;50.90;15.00;103059.00;;;;5055127;28;20129;-71
2022/01/24 09:18:16;;;;;;;4.93;2.88;;;16.00;50.90;15.00;103058.00;;;;5064423;28;20037;-71
2022/01/24 09:21:02;;;;;;;4.28;3.20;;;16.00;50.90;15.00;103054.00;;;;5038439;28;20037;-71
2022/01/24 09:23:48;;;;;;;3.47;3.05;;;16.00;50.90;15.00;103060.00;;;;5066697;28;20112;-71
2022/01/24 09:26:34;;;;;;;3.75;3.08;;;16.00;50.90;15.00;103064.00;;;;5050870;28;20028;-71
2022/01/24 09:29:20;;;;;;;4.63;3.03;;;16.00;50.90;15.00;103065.00;;;;5062015;28;20148;-71
2022/01/24 09:32:06;;;;;;;4.80;3.33;;;16.00;50.90;15.00;103071.00;;;;5070311;28;20028;-71
2022/01/24 09:34:53;;;;;;;4.40;3.15;;;16.00;50.90;15.00;103069.00;;;;5052090;28;20543;-71
2022/01/24 09:37:39;;;;;;;5.53;3.40;;;16.00;50.90;15.00;103062.00;;;;5065983;28;20057;-71
2022/01/24 09:40:25;;;;;;;4.75;3.35;;;16.00;50.90;15.00;103066.00;;;;5053170;28;20044;-71
2022/01/24 09:43:11;;;;;;;4.95;3.03;;;16.00;50.90;15.00;103070.00;;;;5038830;28;20039;-71
2022/01/24 09:45:58;;;;;;;4.53;3.38;;;16.00;50.90;15.00;103067.00;;;;5061941;28;20097;-71
2022/01/24 09:48:44;;;;;;;4.13;3.33;;;16.00;50.90;15.00;103063.00;;;;5055161;28;20040;-71
2022/01/24 09:51:30;;;;;;;5.65;3.55;;;16.00;50.90;15.00;103073.00;;;;5065144;28;20036;-71
2022/01/24 09:54:16;;;;;;;5.63;4.25;;;16.00;50.90;15.00;103066.00;;;;5046670;28;20402;-71
2022/01/24 09:57:02;;;;;;;5.75;3.90;;;16.00;50.80;15.00;103062.00;;;;5061226;28;20049;-71
2022/01/24 09:59:49;;;;;;;5.75;3.70;;;16.00;50.90;15.00;103059.00;;;;5063006;28;20553;-71
2022/01/24 10:02:38;;;;;;;4.07;3.58;;;16.00;50.90;15.00;103052.00;;;;5065771;28;20062;-71
2022/01/24 10:05:30;;;;;;;4.88;4.15;;;16.00;50.80;15.00;103063.00;;;;5067726;28;20040;-71
2022/01/24 10:08:17;;;;;;;4.38;3.53;;;16.00;50.80;15.00;103060.00;;;;5065041;28;20040;-71
2022/01/24 10:11:05;;;;;;;5.47;4.30;;;16.00;50.80;15.00;103067.00;;;;5051623;28;20037;-71
2022/01/24 10:16:55;;;;;;;6.05;4.15;;;16.00;50.80;15.00;103067.00;;;;5066920;28;20043;-71
2022/01/24 10:19:42;;;;;;;5.68;4.50;;;16.00;50.80;15.00;103065.00;;;;5064503;28;20136;-71
2022/01/24 10:22:28;;;;;;;5.88;4.57;;;16.00;50.80;15.00;103049.00;;;;5065024;28;20078;-71
2022/01/24 10:25:14;;;;;;;5.85;4.00;;;16.00;50.80;15.00;103067.00;;;;5066359;28;20040;-71
2022/01/24 10:28:02;;;;;;;5.88;4.45;;;16.00;50.80;15.00;103068.00;;;;5060327;28;20048;-71
2022/01/24 10:31:19;;;;;;;6.40;4.90;;;16.00;50.80;15.00;103070.00;;;;5046852;28;20037;-71
2022/01/24 10:34:17;;;;;;;5.68;4.60;;;16.00;50.80;15.00;103061.00;;;;5055492;28;20040;-71
2022/01/24 10:37:03;;;;;;;5.93;4.55;;;16.00;51.50;15.00;103066.00;;;;5066325;28;20407;-71
2022/01/24 10:39:59;;;;;;;6.90;4.95;;;16.00;50.80;15.00;103058.00;;;;5065243;28;20119;-71
2022/01/24 10:42:55;;;;;;;5.88;4.90;;;16.00;50.80;15.00;103064.00;;;;5049859;28;20037;-71
2022/01/24 10:45:45;;;;;;;5.97;5.30;;;16.00;50.80;15.00;103061.00;;;;5065396;28;20390;-71
2022/01/24 10:48:34;;;;;;;5.50;4.75;;;16.00;50.80;15.00;103055.00;;;;5035441;28;20041;-71
2022/01/24 10:51:21;;;;;;;7.13;5.13;;;16.00;50.80;15.00;103057.00;;;;5045666;28;20037;-71
2022/01/24 10:54:07;;;;;;;6.70;5.00;;;16.00;51.40;15.00;103056.00;;;;5057878;28;20031;-71
2022/01/24 10:56:53;;;;;;;6.50;4.82;;;16.00;50.70;15.00;103040.00;;;;5052871;28;20040;-71
2022/01/24 10:59:39;;;;;;;5.93;4.95;;;16.00;50.70;15.00;103049.00;;;;5049495;28;20048;-71
2022/01/24 11:02:35;;;;;;;6.63;5.00;;;16.00;50.70;15.00;103047.00;;;;5062754;28;20052;-71
2022/01/24 11:05:25;;;;;;;6.93;5.30;;;16.00;50.70;15.00;103052.00;;;;5048331;28;20147;-71
2022/01/24 11:08:15;;;;;;;6.85;5.35;;;16.00;50.70;15.00;103055.00;;;;5042082;28;20041;-71
2022/01/24 11:11:01;;;;;;;8.93;5.43;;;16.00;50.60;15.00;103051.00;;;;5047791;28;20040;-71
2022/01/24 11:13:47;;;;;;;6.97;5.50;;;16.00;50.60;15.00;103045.00;;;;5048665;28;20071;-71
2022/01/24 11:16:33;;;;;;;6.40;5.03;;;16.00;50.70;15.00;103041.00;;;;5065626;28;20394;-71
2022/01/24 11:19:29;;;;;;;7.78;5.78;;;16.00;50.60;15.00;103034.00;;;;5054800;28;20044;-71
2022/01/24 11:22:25;;;;;;;7.40;5.75;;;16.00;50.60;15.00;103030.00;;;;5052081;28;20041;-71
2022/01/24 11:25:13;;;;;;;6.35;4.82;;;16.00;50.60;15.00;103030.00;;;;5052238;28;20047;-71
2022/01/24 11:27:59;;;;;;;;;;;16.00;50.50;15.00;103030.00;;;;5059214;28;20040;-71
2022/01/24 11:31:16;;;;;;;7.72;5.57;;;16.00;50.70;15.00;103036.00;;;;5058966;28;19916;-71
2022/01/24 11:34:11;;;;;;;7.72;5.50;;;16.00;50.40;14.90;103034.00;;;;5039527;28;20036;-71
2022/01/24 11:36:58;;;;;;;7.75;5.30;;;16.00;50.30;14.90;103028.00;;;;5064476;28;20036;-71
2022/01/24 11:39:44;;;;;;;7.13;5.53;;;16.00;50.40;15.00;103041.00;;;;5066023;28;20139;-71
2022/01/24 11:42:32;;;;;;;8.68;5.85;;;16.00;50.40;15.00;103032.00;;;;5033290;28;20060;-71
2022/01/24 11:45:55;;;;;;;8.18;6.00;;;16.00;50.40;15.00;103027.00;;;;5044048;28;20489;-71
2022/01/24 11:48:42;;;;;;;6.70;5.40;;;16.00;50.40;14.90;103020.00;;;;5055088;28;20748;-71
2022/01/24 11:51:30;;;;;;;8.23;5.32;;;16.00;50.40;15.00;103018.00;;;;5068923;28;20035;-71
2022/01/24 11:54:55;;;;;;;7.95;5.63;;;16.00;50.40;15.00;103016.00;;;;5041499;28;20120;-71
2022/01/24 11:57:50;;;;;;;7.22;5.20;;;16.00;50.40;15.00;103019.00;;;;5061185;28;20028;-71
2022/01/24 12:00:44;;;;;;;7.13;5.15;;;16.00;50.40;15.00;103010.00;;;;5066439;28;20106;-71
2022/01/24 12:03:30;;;;;;;7.43;5.63;;;16.00;50.30;15.00;103013.00;;;;5065353;28;20051;-71
2022/01/24 12:06:19;;;;;;;6.75;5.45;;;16.00;50.30;15.00;103011.00;;;;5062499;28;20041;-71
2022/01/24 12:09:06;;;;;;;7.18;5.80;;;16.00;50.30;15.00;103001.00;;;;5042915;28;20044;-71
2022/01/24 12:11:53;;;;;;;8.20;5.88;;;16.00;50.30;15.00;102990.00;;;;5049470;28;20466;-71
2022/01/24 12:14:39;;;;;;;7.55;5.70;;;16.00;50.30;15.00;103010.00;;;;5047558;28;20048;-71
2022/01/24 12:17:47;;;;;;;7.20;5.45;;;16.00;50.30;15.00;103003.00;;;;5065415;28;20036;-71
2022/01/24 12:20:35;;;;;;;7.00;5.70;;;16.00;50.30;15.00;102997.00;;;;5048936;28;20044;-71
2022/01/24 12:23:24;;;;;;;7.05;5.30;;;16.00;50.30;15.00;103002.00;;;;5057202;28;20040;-71
2022/01/24 12:26:13;;;;;;;7.00;5.90;;;16.00;50.20;15.00;103004.00;;;;5065510;28;20044;-71
2022/01/24 12:29:20;;;;;;;8.32;5.75;;;16.00;50.30;15.00;103004.00;;;;5058384;28;20059;-71
2022/01/24 12:32:20;;;;;;;7.35;5.43;;;16.00;50.20;15.00;103011.00;;;;5044280;28;20032;-71
2022/01/24 12:35:27;;;;;;;7.75;6.10;;;16.00;50.20;15.00;103008.00;;;;5048486;28;20084;-71
2022/01/24 12:38:16;;;;;;;8.50;5.80;;;16.00;50.20;15.00;103004.00;;;;5066100;28;20033;-71
2022/01/24 12:41:15;;;;;;;7.70;5.40;;;16.00;50.90;15.00;102996.00;;;;5063682;28;20029;-71
2022/01/24 12:46:50;;;;;;;7.30;5.28;;;16.00;50.20;15.00;102998.00;;;;5052557;28;20037;-71
2022/01/24 12:49:36;;;;;;;8.18;5.68;;;16.00;50.20;15.00;103002.00;;;;5053191;28;20037;-71
2022/01/24 12:52:27;;;;;;;8.10;5.93;;;16.00;50.20;15.00;102996.00;;;;5046140;28;20393;-71
2022/01/24 12:55:13;;;;;;;6.78;5.50;;;16.00;50.10;15.00;102998.00;;;;5062532;28;20040;-72
2022/01/24 12:57:59;;;;;;;7.68;5.85;;;16.00;50.20;15.00;102995.00;;;;5063694;28;20036;-71
2022/01/24 13:00:47;;;;;;;8.27;5.43;;;16.00;50.20;15.00;102994.00;;;;5056589;28;20099;-71
2022/01/24 13:03:50;;;;;;;;;;;16.00;50.10;15.00;102992.00;;;;5061616;28;20044;-71
2022/01/24 13:06:43;;;;;;;7.05;5.55;;;16.00;50.30;15.00;102986.00;;;;5053435;28;19919;-71
2022/01/24 13:09:29;;;;;;;8.05;6.30;;;16.10;50.10;15.00;102981.00;;;;5035599;28;20118;-71
2022/01/24 13:12:15;;;;;;;6.97;5.93;;;16.10;50.10;15.00;102973.00;;;;5062853;28;20040;-71
2022/01/24 13:15:05;;;;;;;8.85;5.80;;;16.00;50.00;15.00;102979.00;;;;5046677;28;20481;-71
2022/01/24 13:21:08;;;;;;;8.98;6.25;;;16.00;50.10;15.00;102973.00;;;;5059575;28;20466;-71
2022/01/24 13:24:00;;;;;;;8.35;6.63;;;16.00;50.00;15.00;102978.00;;;;5049194;28;20105;-71
2022/01/24 13:26:47;;;;;;;8.00;6.20;;;16.00;50.10;15.00;102969.00;;;;5048044;28;20041;-71
2022/01/24 13:29:38;;;;;;;7.60;5.90;;;16.00;50.10;15.00;102965.00;;;;5059782;28;20051;-71
2022/01/24 13:32:41;;;;;;;8.00;6.13;;;16.00;50.00;15.00;102960.00;;;;5037548;28;20404;-71
2022/01/24 13:35:59;;;;;;;8.55;6.32;;;16.00;50.00;15.00;102966.00;;;;5067246;28;20138;-71
2022/01/24 13:38:47;;;;;;;7.07;6.00;;;16.00;50.00;15.00;102965.00;;;;5060492;28;20063;-71
2022/01/24 13:41:33;;;;;;;8.25;6.47;;;16.00;50.00;15.00;102956.00;;;;5049979;28;20406;-71
2022/01/24 13:44:19;;;;;;;9.60;6.55;;;16.00;50.00;15.00;102966.00;;;;5063377;28;20044;-71
2022/01/24 13:47:09;;;;;;;7.75;5.95;;;16.10;50.10;15.00;102974.00;;;;5065023;28;20428;-71
2022/01/24 13:49:55;;;;;;;9.90;7.05;;;16.00;50.00;15.00;102973.00;;;;5064988;28;20040;-71
2022/01/24 13:52:48;;;;;;;8.23;6.07;;;16.00;50.00;15.00;102968.00;;;;5070653;28;20051;-71
2022/01/24 13:55:40;;;;;;;8.27;6.07;;;16.10;50.00;15.00;102970.00;;;;5043814;28;20551;-71
2022/01/24 13:58:26;;;;;;;8.63;6.22;;;16.00;50.00;15.00;102962.00;;;;5053025;28;20056;-71